TimeCDT,TemperatureF,Dew PointF,Humidity,Sea Level PressureIn,VisibilityMPH,Wind Direction,Wind SpeedMPH,Gust SpeedMPH,PrecipitationIn,Events,Conditions,WindDirDegrees,DateUTC
12:52 AM,45.0,37.9,76,29.57,10.0,NE,18.4,21.9,N/A,,Mostly Cloudy,40,2014-03-11 05:52:00
1:52 AM,43.0,37.9,82,29.59,10.0,NE,15.0,24.2,N/A,,Partly Cloudy,40,2014-03-11 06:52:00
2:14 AM,42.8,37.4,81,29.62,10.0,NNE,12.7,16.1,N/A,,Mostly Cloudy,30,2014-03-11 07:14:00
2:37 AM,42.8,37.4,81,29.63,10.0,North,16.1,-,N/A,,Overcast,10,2014-03-11 07:37:00
2:52 AM,42.1,37.0,82,29.62,10.0,NNE,17.3,23.0,N/A,,Overcast,30,2014-03-11 07:52:00
3:09 AM,41.0,35.6,81,29.64,10.0,North,18.4,23.0,N/A,,Mostly Cloudy,360,2014-03-11 08:09:00
3:21 AM,41.0,35.6,81,29.64,10.0,North,12.7,-,N/A,,Scattered Clouds,360,2014-03-11 08:21:00
3:28 AM,41.0,35.6,81,29.65,10.0,North,17.3,-,N/A,,Mostly Cloudy,360,2014-03-11 08:28:00
3:44 AM,39.2,35.6,87,29.65,10.0,North,15.0,24.2,N/A,,Mostly Cloudy,10,2014-03-11 08:44:00
3:52 AM,39.0,35.1,86,29.66,10.0,North,17.3,24.2,N/A,,Overcast,10,2014-03-11 08:52:00
4:31 AM,37.4,33.8,87,29.67,10.0,North,16.1,26.5,N/A,,Overcast,10,2014-03-11 09:31:00
4:48 AM,37.4,32.0,81,29.67,10.0,NNE,18.4,29.9,N/A,,Mostly Cloudy,20,2014-03-11 09:48:00
4:52 AM,37.0,32.0,82,29.67,10.0,NNE,20.7,27.6,N/A,,Mostly Cloudy,20,2014-03-11 09:52:00
5:29 AM,37.4,32.0,81,29.67,10.0,NNE,19.6,29.9,N/A,,Mostly Cloudy,30,2014-03-11 10:29:00
5:38 AM,37.4,32.0,81,29.67,10.0,NNE,25.3,33.4,N/A,,Overcast,30,2014-03-11 10:38:00
5:48 AM,37.4,32.0,81,29.67,10.0,NE,21.9,29.9,N/A,,Overcast,40,2014-03-11 10:48:00
5:52 AM,37.0,32.0,82,29.68,10.0,NE,26.5,34.5,N/A,,Overcast,40,2014-03-11 10:52:00
6:17 AM,35.6,32.0,87,29.72,10.0,NNE,25.3,34.5,N/A,,Overcast,30,2014-03-11 11:17:00
6:33 AM,35.6,32.0,87,29.72,10.0,NNE,20.7,35.7,N/A,,Overcast,30,2014-03-11 11:33:00
6:52 AM,35.1,33.1,92,29.77,7.0,NNE,21.9,32.2,N/A,,Overcast,20,2014-03-11 11:52:00
7:52 AM,34.0,33.1,96,29.83,9.0,NNE,19.6,27.6,N/A,,Overcast,20,2014-03-11 12:52:00
8:52 AM,34.0,32.0,92,29.87,4.0,NNE,17.3,29.9,0.00,,Overcast,20,2014-03-11 13:52:00
9:03 AM,33.8,32.0,93,29.84,2.5,NNE,18.4,25.3,0.00,Snow,Light Snow,20,2014-03-11 14:03:00
9:19 AM,33.8,32.0,93,29.85,3.0,NNE,17.3,29.9,0.00,,Overcast,20,2014-03-11 14:19:00
9:33 AM,33.8,30.2,87,29.86,3.0,North,19.6,28.8,0.00,,Overcast,10,2014-03-11 14:33:00
9:52 AM,33.1,30.9,92,29.90,3.0,North,17.3,28.8,0.00,,Overcast,10,2014-03-11 14:52:00
10:01 AM,33.8,30.2,87,29.87,2.5,North,17.3,24.2,N/A,,Overcast,10,2014-03-11 15:01:00
10:09 AM,33.8,32.0,93,29.88,4.0,North,17.3,24.2,N/A,,Overcast,10,2014-03-11 15:09:00
10:33 AM,33.8,32.0,93,29.90,2.5,North,17.3,25.3,N/A,,Overcast,10,2014-03-11 15:33:00
10:40 AM,33.8,32.0,93,29.90,4.0,North,17.3,-,N/A,,Overcast,10,2014-03-11 15:40:00
10:52 AM,34.0,32.0,92,29.96,4.0,North,16.1,24.2,N/A,,Overcast,10,2014-03-11 15:52:00
11:52 AM,36.0,33.1,89,30.01,10.0,North,17.3,26.5,N/A,,Overcast,350,2014-03-11 16:52:00
12:52 PM,37.9,32.0,79,30.03,10.0,North,18.4,26.5,N/A,,Overcast,350,2014-03-11 17:52:00
1:33 PM,39.2,32.0,75,29.99,10.0,NNW,20.7,33.4,N/A,,Overcast,340,2014-03-11 18:33:00
1:52 PM,39.9,30.9,70,30.04,10.0,NNW,21.9,32.2,N/A,,Overcast,340,2014-03-11 18:52:00
2:24 PM,42.8,28.4,57,30.01,10.0,North,19.6,31.1,N/A,,Overcast,360,2014-03-11 19:24:00
2:52 PM,43.0,28.0,56,30.05,10.0,North,25.3,32.2,N/A,,Overcast,350,2014-03-11 19:52:00
3:52 PM,44.1,26.1,49,30.07,10.0,North,21.9,33.4,N/A,,Mostly Cloudy,350,2014-03-11 20:52:00
4:52 PM,45.0,26.1,48,30.11,10.0,North,25.3,31.1,N/A,,Scattered Clouds,360,2014-03-11 21:52:00
5:52 PM,45.0,25.0,46,30.14,10.0,North,20.7,32.2,N/A,,Mostly Cloudy,360,2014-03-11 22:52:00
6:52 PM,41.0,26.1,55,30.20,10.0,North,20.7,31.1,N/A,,Mostly Cloudy,350,2014-03-11 23:52:00
7:52 PM,39.0,27.0,62,30.23,10.0,NNW,16.1,23.0,N/A,,Overcast,340,2014-03-12 00:52:00
8:52 PM,36.0,28.0,73,30.27,10.0,NNW,11.5,-,0.00,,Scattered Clouds,340,2014-03-12 01:52:00
9:52 PM,33.1,26.1,75,30.28,10.0,NNW,8.1,-,N/A,,Clear,330,2014-03-12 02:52:00
10:52 PM,30.0,26.1,85,30.29,10.0,West,8.1,-,N/A,,Clear,280,2014-03-12 03:52:00
11:52 PM,30.0,27.0,88,30.28,10.0,WNW,6.9,-,N/A,,Clear,290,2014-03-12 04:52:00